sensor_id;sensor_type;location;lat;lon;timestamp;temperature;humidity
48898;DHT22;34713;50.038;20.000;2022-12-19T00:00:46;-6.30;60.50
48898;DHT22;34713;50.038;20.000;2022-12-19T00:03:14;-6.29;60.46
48898;DHT22;34713;50.038;20.000;2022-12-19T00:05:40;-6.26;60.44
48898;DHT22;34713;50.038;20.000;2022-12-19T00:08:14;-6.26;60.50
48898;DHT22;34713;50.038;20.000;2022-12-19T00:10:42;-6.25;60.45
48898;DHT22;34713;50.038;20.000;2022-12-19T00:13:08;-6.25;60.40
48898;DHT22;34713;50.038;20.000;2022-12-19T00:15:35;-6.28;60.36
48898;DHT22;34713;50.038;20.000;2022-12-19T00:18:01;-6.28;60.45
48898;DHT22;34713;50.038;20.000;2022-12-19T00:20:27;-6.25;60.54
48898;DHT22;34713;50.038;20.000;2022-12-19T00:22:52;-6.28;60.65
48898;DHT22;34713;50.038;20.000;2022-12-19T00:25:18;-6.36;60.40
48898;DHT22;34713;50.038;20.000;2022-12-19T00:27:44;-6.46;60.44
48898;DHT22;34713;50.038;20.000;2022-12-19T00:30:11;-6.45;60.51
48898;DHT22;34713;50.038;20.000;2022-12-19T00:32:37;-6.48;60.56
48898;DHT22;34713;50.038;20.000;2022-12-19T00:35:03;-6.48;60.59
48898;DHT22;34713;50.038;20.000;2022-12-19T00:37:29;-6.48;60.63
48898;DHT22;34713;50.038;20.000;2022-12-19T00:39:55;-6.49;60.67
48898;DHT22;34713;50.038;20.000;2022-12-19T00:42:21;-6.45;60.85
48898;DHT22;34713;50.038;20.000;2022-12-19T00:44:46;-6.48;60.79
48898;DHT22;34713;50.038;20.000;2022-12-19T00:47:12;-6.49;61.05
48898;DHT22;34713;50.038;20.000;2022-12-19T00:49:38;-6.49;61.14
48898;DHT22;34713;50.038;20.000;2022-12-19T00:52:04;-6.56;61.01
48898;DHT22;34713;50.038;20.000;2022-12-19T00:54:29;-6.53;61.05
48898;DHT22;34713;50.038;20.000;2022-12-19T00:56:55;-6.53;61.16
48898;DHT22;34713;50.038;20.000;2022-12-19T00:59:21;-6.48;61.17
48898;DHT22;34713;50.038;20.000;2022-12-19T01:01:47;-6.45;61.16
48898;DHT22;34713;50.038;20.000;2022-12-19T01:04:13;-6.44;61.22
48898;DHT22;34713;50.038;20.000;2022-12-19T01:06:39;-6.44;61.01
48898;DHT22;34713;50.038;20.000;2022-12-19T01:09:05;-6.45;61.03
48898;DHT22;34713;50.038;20.000;2022-12-19T01:11:31;-6.41;61.20
48898;DHT22;34713;50.038;20.000;2022-12-19T01:14:15;-6.49;61.05
48898;DHT22;34713;50.038;20.000;2022-12-19T01:16:41;-6.48;61.22
48898;DHT22;34713;50.038;20.000;2022-12-19T01:19:06;-6.52;61.12
48898;DHT22;34713;50.038;20.000;2022-12-19T01:21:32;-6.53;61.06
48898;DHT22;34713;50.038;20.000;2022-12-19T01:24:02;-6.60;60.90
48898;DHT22;34713;50.038;20.000;2022-12-19T01:26:28;-6.65;60.87
48898;DHT22;34713;50.038;20.000;2022-12-19T01:28:54;-6.70;60.80
48898;DHT22;34713;50.038;20.000;2022-12-19T01:31:21;-6.74;60.80
48898;DHT22;34713;50.038;20.000;2022-12-19T01:33:47;-6.76;60.73
48898;DHT22;34713;50.038;20.000;2022-12-19T01:36:12;-6.79;60.72
48898;DHT22;34713;50.038;20.000;2022-12-19T01:38:38;-6.80;60.69
48898;DHT22;34713;50.038;20.000;2022-12-19T01:41:04;-6.81;60.62
48898;DHT22;34713;50.038;20.000;2022-12-19T01:46:04;-6.88;60.42
48898;DHT22;34713;50.038;20.000;2022-12-19T01:48:42;-6.97;60.36
48898;DHT22;34713;50.038;20.000;2022-12-19T01:51:25;-7.04;60.44
48898;DHT22;34713;50.038;20.000;2022-12-19T01:53:58;-7.08;60.41
48898;DHT22;34713;50.038;20.000;2022-12-19T01:56:31;-7.12;60.40
48898;DHT22;34713;50.038;20.000;2022-12-19T01:59:03;-7.14;60.39
48898;DHT22;34713;50.038;20.000;2022-12-19T02:01:29;-7.17;60.40
48898;DHT22;34713;50.038;20.000;2022-12-19T02:03:55;-7.21;60.29
48898;DHT22;34713;50.038;20.000;2022-12-19T02:06:23;-7.27;60.13
48898;DHT22;34713;50.038;20.000;2022-12-19T02:08:50;-7.32;60.11
48898;DHT22;34713;50.038;20.000;2022-12-19T02:11:16;-7.34;60.19
48898;DHT22;34713;50.038;20.000;2022-12-19T02:13:42;-7.34;60.27
48898;DHT22;34713;50.038;20.000;2022-12-19T02:22:12;-7.29;60.43
48898;DHT22;34713;50.038;20.000;2022-12-19T02:30:42;-7.21;60.55
48898;DHT22;34713;50.038;20.000;2022-12-19T02:36:16;-7.17;60.47
48898;DHT22;34713;50.038;20.000;2022-12-19T02:38:55;-7.21;60.41
48898;DHT22;34713;50.038;20.000;2022-12-19T02:41:40;-7.25;60.27
48898;DHT22;34713;50.038;20.000;2022-12-19T02:44:16;-7.31;60.18
48898;DHT22;34713;50.038;20.000;2022-12-19T02:46:41;-7.38;60.16
48898;DHT22;34713;50.038;20.000;2022-12-19T02:49:08;-7.36;60.19
48898;DHT22;34713;50.038;20.000;2022-12-19T02:51:35;-7.36;60.19
48898;DHT22;34713;50.038;20.000;2022-12-19T02:54:01;-7.35;60.19
48898;DHT22;34713;50.038;20.000;2022-12-19T03:08:13;-7.38;60.29
48898;DHT22;34713;50.038;20.000;2022-12-19T03:11:02;-7.40;60.24
48898;DHT22;34713;50.038;20.000;2022-12-19T03:13:45;-7.40;60.28
48898;DHT22;34713;50.038;20.000;2022-12-19T03:16:11;-7.48;60.25
48898;DHT22;34713;50.038;20.000;2022-12-19T03:18:38;-7.48;60.28
48898;DHT22;34713;50.038;20.000;2022-12-19T03:21:28;-7.46;60.22
48898;DHT22;34713;50.038;20.000;2022-12-19T03:23:54;-7.48;60.08
48898;DHT22;34713;50.038;20.000;2022-12-19T03:26:26;-7.49;60.01
48898;DHT22;34713;50.038;20.000;2022-12-19T03:28:57;-7.49;59.93
48898;DHT22;34713;50.038;20.000;2022-12-19T03:31:26;-7.52;59.79
48898;DHT22;34713;50.038;20.000;2022-12-19T03:33:58;-7.55;59.51
48898;DHT22;34713;50.038;20.000;2022-12-19T03:36:32;-7.59;59.52
48898;DHT22;34713;50.038;20.000;2022-12-19T03:39:00;-7.64;59.53
48898;DHT22;34713;50.038;20.000;2022-12-19T03:41:29;-7.64;59.60
48898;DHT22;34713;50.038;20.000;2022-12-19T03:44:07;-7.62;59.68
48898;DHT22;34713;50.038;20.000;2022-12-19T03:46:40;-7.57;59.79
48898;DHT22;34713;50.038;20.000;2022-12-19T03:49:06;-7.55;59.72
48898;DHT22;34713;50.038;20.000;2022-12-19T03:52:04;-7.49;59.67
48898;DHT22;34713;50.038;20.000;2022-12-19T03:54:35;-7.49;59.64
48898;DHT22;34713;50.038;20.000;2022-12-19T03:57:23;-7.48;59.60
48898;DHT22;34713;50.038;20.000;2022-12-19T04:00:09;-7.46;59.53
48898;DHT22;34713;50.038;20.000;2022-12-19T04:02:37;-7.46;59.48
48898;DHT22;34713;50.038;20.000;2022-12-19T04:05:11;-7.46;59.42
48898;DHT22;34713;50.038;20.000;2022-12-19T04:07:38;-7.45;59.38
48898;DHT22;34713;50.038;20.000;2022-12-19T04:10:08;-7.45;59.35
48898;DHT22;34713;50.038;20.000;2022-12-19T04:12:39;-7.45;59.33
48898;DHT22;34713;50.038;20.000;2022-12-19T04:15:07;-7.43;59.36
48898;DHT22;34713;50.038;20.000;2022-12-19T04:17:47;-7.42;59.35
48898;DHT22;34713;50.038;20.000;2022-12-19T04:20:14;-7.39;59.34
48898;DHT22;34713;50.038;20.000;2022-12-19T04:22:54;-7.38;59.35
48898;DHT22;34713;50.038;20.000;2022-12-19T04:25:27;-7.40;59.33
48898;DHT22;34713;50.038;20.000;2022-12-19T04:28:08;-7.40;59.32
48898;DHT22;34713;50.038;20.000;2022-12-19T04:30:33;-7.38;59.35
48898;DHT22;34713;50.038;20.000;2022-12-19T04:32:59;-7.39;59.29
48898;DHT22;34713;50.038;20.000;2022-12-19T04:35:25;-7.39;59.27
48898;DHT22;34713;50.038;20.000;2022-12-19T04:37:51;-7.40;59.26
48898;DHT22;34713;50.038;20.000;2022-12-19T04:40:17;-7.43;59.25
48898;DHT22;34713;50.038;20.000;2022-12-19T04:42:43;-7.43;59.32
48898;DHT22;34713;50.038;20.000;2022-12-19T04:45:10;-7.42;59.35
48898;DHT22;34713;50.038;20.000;2022-12-19T04:47:35;-7.45;59.35
48898;DHT22;34713;50.038;20.000;2022-12-19T04:50:02;-7.48;59.29
48898;DHT22;34713;50.038;20.000;2022-12-19T04:52:28;-7.46;59.32
48898;DHT22;34713;50.038;20.000;2022-12-19T04:54:53;-7.49;59.35
48898;DHT22;34713;50.038;20.000;2022-12-19T04:57:19;-7.49;59.39
48898;DHT22;34713;50.038;20.000;2022-12-19T04:59:45;-7.49;59.40
48898;DHT22;34713;50.038;20.000;2022-12-19T05:02:11;-7.53;59.37
48898;DHT22;34713;50.038;20.000;2022-12-19T05:04:36;-7.59;59.36
48898;DHT22;34713;50.038;20.000;2022-12-19T05:07:02;-7.57;59.44
48898;DHT22;34713;50.038;20.000;2022-12-19T05:09:28;-7.62;59.44
48898;DHT22;34713;50.038;20.000;2022-12-19T05:11:54;-7.62;59.47
48898;DHT22;34713;50.038;20.000;2022-12-19T05:14:19;-7.66;59.47
48898;DHT22;34713;50.038;20.000;2022-12-19T05:16:45;-7.67;59.53
48898;DHT22;34713;50.038;20.000;2022-12-19T05:19:11;-7.69;59.52
48898;DHT22;34713;50.038;20.000;2022-12-19T05:21:36;-7.70;59.52
48898;DHT22;34713;50.038;20.000;2022-12-19T05:24:03;-7.69;59.53
48898;DHT22;34713;50.038;20.000;2022-12-19T05:26:29;-7.71;59.51
48898;DHT22;34713;50.038;20.000;2022-12-19T05:28:54;-7.74;59.50
48898;DHT22;34713;50.038;20.000;2022-12-19T05:31:20;-7.79;59.56
48898;DHT22;34713;50.038;20.000;2022-12-19T05:33:47;-7.80;59.57
48898;DHT22;34713;50.038;20.000;2022-12-19T05:36:15;-7.85;59.60
48898;DHT22;34713;50.038;20.000;2022-12-19T05:38:42;-7.90;59.69
48898;DHT22;34713;50.038;20.000;2022-12-19T05:41:17;-7.91;59.72
48898;DHT22;34713;50.038;20.000;2022-12-19T05:43:45;-7.93;59.78
48898;DHT22;34713;50.038;20.000;2022-12-19T05:46:11;-7.94;59.81
48898;DHT22;34713;50.038;20.000;2022-12-19T05:48:37;-7.91;59.86
48898;DHT22;34713;50.038;20.000;2022-12-19T05:51:04;-7.89;59.85
48898;DHT22;34713;50.038;20.000;2022-12-19T05:53:30;-7.89;59.88
48898;DHT22;34713;50.038;20.000;2022-12-19T05:56:12;-7.90;59.83
48898;DHT22;34713;50.038;20.000;2022-12-19T05:58:40;-7.90;59.81
48898;DHT22;34713;50.038;20.000;2022-12-19T06:01:18;-7.87;59.84
48898;DHT22;34713;50.038;20.000;2022-12-19T06:03:45;-7.87;59.78
48898;DHT22;34713;50.038;20.000;2022-12-19T06:06:15;-7.86;59.77
48898;DHT22;34713;50.038;20.000;2022-12-19T06:08:41;-7.86;59.71
48898;DHT22;34713;50.038;20.000;2022-12-19T06:11:08;-7.87;59.69
48898;DHT22;34713;50.038;20.000;2022-12-19T06:13:35;-7.87;59.65
48898;DHT22;34713;50.038;20.000;2022-12-19T06:16:08;-7.87;59.61
48898;DHT22;34713;50.038;20.000;2022-12-19T06:18:33;-7.93;59.56
48898;DHT22;34713;50.038;20.000;2022-12-19T06:21:04;-7.94;59.57
48898;DHT22;34713;50.038;20.000;2022-12-19T06:23:33;-7.93;59.63
48898;DHT22;34713;50.038;20.000;2022-12-19T06:26:02;-7.97;59.62
48898;DHT22;34713;50.038;20.000;2022-12-19T06:28:29;-7.96;59.66
48898;DHT22;34713;50.038;20.000;2022-12-19T06:30:56;-7.94;60.10
48898;DHT22;34713;50.038;20.000;2022-12-19T06:33:24;-7.89;60.45
48898;DHT22;34713;50.038;20.000;2022-12-19T06:36:01;-7.90;60.51
48898;DHT22;34713;50.038;20.000;2022-12-19T06:38:28;-7.86;60.69
48898;DHT22;34713;50.038;20.000;2022-12-19T06:40:54;-7.86;60.63
48898;DHT22;34713;50.038;20.000;2022-12-19T06:43:38;-7.83;60.71
48898;DHT22;34713;50.038;20.000;2022-12-19T06:46:05;-7.85;60.14
48898;DHT22;34713;50.038;20.000;2022-12-19T06:48:32;-7.87;59.75
48898;DHT22;34713;50.038;20.000;2022-12-19T06:50:57;-7.93;59.67
48898;DHT22;34713;50.038;20.000;2022-12-19T06:53:23;-7.93;59.64
48898;DHT22;34713;50.038;20.000;2022-12-19T06:55:52;-7.93;59.71
48898;DHT22;34713;50.038;20.000;2022-12-19T06:58:18;-7.94;59.63
48898;DHT22;34713;50.038;20.000;2022-12-19T07:00:44;-7.96;59.65
48898;DHT22;34713;50.038;20.000;2022-12-19T07:03:12;-8.00;59.65
48898;DHT22;34713;50.038;20.000;2022-12-19T07:05:40;-8.03;59.67
48898;DHT22;34713;50.038;20.000;2022-12-19T07:08:07;-8.04;59.70
48898;DHT22;34713;50.038;20.000;2022-12-19T07:10:33;-8.04;59.78
48898;DHT22;34713;50.038;20.000;2022-12-19T07:12:59;-8.01;59.87
48898;DHT22;34713;50.038;20.000;2022-12-19T07:15:25;-7.96;59.99
48898;DHT22;34713;50.038;20.000;2022-12-19T07:17:51;-7.93;59.97
48898;DHT22;34713;50.038;20.000;2022-12-19T07:20:18;-7.91;60.02
48898;DHT22;34713;50.038;20.000;2022-12-19T07:22:46;-7.87;60.08
48898;DHT22;34713;50.038;20.000;2022-12-19T07:25:12;-7.83;60.18
48898;DHT22;34713;50.038;20.000;2022-12-19T07:27:39;-7.80;60.13
48898;DHT22;34713;50.038;20.000;2022-12-19T07:30:06;-7.74;60.15
48898;DHT22;34713;50.038;20.000;2022-12-19T07:32:33;-7.71;60.18
48898;DHT22;34713;50.038;20.000;2022-12-19T07:34:58;-7.66;60.24
48898;DHT22;34713;50.038;20.000;2022-12-19T07:37:24;-7.62;60.15
48898;DHT22;34713;50.038;20.000;2022-12-19T07:39:50;-7.62;60.16
48898;DHT22;34713;50.038;20.000;2022-12-19T07:42:17;-7.57;60.17
48898;DHT22;34713;50.038;20.000;2022-12-19T07:44:43;-7.52;60.17
48898;DHT22;34713;50.038;20.000;2022-12-19T07:47:09;-7.46;60.19
48898;DHT22;34713;50.038;20.000;2022-12-19T07:49:35;-7.38;60.16
48898;DHT22;34713;50.038;20.000;2022-12-19T07:52:01;-7.34;60.35
48898;DHT22;34713;50.038;20.000;2022-12-19T07:54:27;-7.22;60.29
48898;DHT22;34713;50.038;20.000;2022-12-19T07:56:53;-7.18;60.14
48898;DHT22;34713;50.038;20.000;2022-12-19T07:59:19;-7.14;60.04
48898;DHT22;34713;50.038;20.000;2022-12-19T08:01:44;-7.12;59.95
48898;DHT22;34713;50.038;20.000;2022-12-19T08:04:10;-7.11;59.92
48898;DHT22;34713;50.038;20.000;2022-12-19T08:06:36;-7.03;59.88
48898;DHT22;34713;50.038;20.000;2022-12-19T08:09:02;-6.96;59.90
48898;DHT22;34713;50.038;20.000;2022-12-19T08:11:28;-6.93;59.90
48898;DHT22;34713;50.038;20.000;2022-12-19T08:13:56;-6.88;59.92
48898;DHT22;34713;50.038;20.000;2022-12-19T08:16:24;-6.83;60.05
48898;DHT22;34713;50.038;20.000;2022-12-19T08:18:51;-6.77;60.18
48898;DHT22;34713;50.038;20.000;2022-12-19T08:21:17;-6.69;60.25
48898;DHT22;34713;50.038;20.000;2022-12-19T08:23:43;-6.62;60.28
48898;DHT22;34713;50.038;20.000;2022-12-19T08:26:14;-6.53;60.18
48898;DHT22;34713;50.038;20.000;2022-12-19T08:28:41;-6.45;60.20
48898;DHT22;34713;50.038;20.000;2022-12-19T08:31:14;-6.35;60.18
48898;DHT22;34713;50.038;20.000;2022-12-19T08:33:41;-6.26;60.09
48898;DHT22;34713;50.038;20.000;2022-12-19T08:36:13;-6.21;60.00
48898;DHT22;34713;50.038;20.000;2022-12-19T08:38:40;-6.11;59.93
48898;DHT22;34713;50.038;20.000;2022-12-19T08:41:07;-6.04;59.84
48898;DHT22;34713;50.038;20.000;2022-12-19T08:43:33;-5.98;59.70
48898;DHT22;34713;50.038;20.000;2022-12-19T08:45:59;-5.94;59.58
48898;DHT22;34713;50.038;20.000;2022-12-19T08:48:25;-5.93;59.50
48898;DHT22;34713;50.038;20.000;2022-12-19T08:50:58;-5.87;59.39
48898;DHT22;34713;50.038;20.000;2022-12-19T08:53:27;-5.80;59.29
48898;DHT22;34713;50.038;20.000;2022-12-19T08:55:58;-5.71;59.02
48898;DHT22;34713;50.038;20.000;2022-12-19T08:58:26;-5.74;59.22
48898;DHT22;34713;50.038;20.000;2022-12-19T09:00:52;-5.73;59.28
48898;DHT22;34713;50.038;20.000;2022-12-19T09:03:19;-5.70;59.32
48898;DHT22;34713;50.038;20.000;2022-12-19T09:05:45;-5.64;59.35
48898;DHT22;34713;50.038;20.000;2022-12-19T09:08:12;-5.58;59.35
48898;DHT22;34713;50.038;20.000;2022-12-19T09:10:38;-5.50;59.11
48898;DHT22;34713;50.038;20.000;2022-12-19T09:13:04;-5.50;59.02
48898;DHT22;34713;50.038;20.000;2022-12-19T09:15:30;-5.50;59.04
48898;DHT22;34713;50.038;20.000;2022-12-19T09:17:56;-5.46;59.02
48898;DHT22;34713;50.038;20.000;2022-12-19T09:20:22;-5.45;59.07
48898;DHT22;34713;50.038;20.000;2022-12-19T09:22:48;-5.42;59.14
48898;DHT22;34713;50.038;20.000;2022-12-19T09:25:14;-5.38;59.12
48898;DHT22;34713;50.038;20.000;2022-12-19T09:27:40;-5.33;59.17
48898;DHT22;34713;50.038;20.000;2022-12-19T09:30:07;-5.32;59.17
48898;DHT22;34713;50.038;20.000;2022-12-19T09:32:33;-5.28;59.16
48898;DHT22;34713;50.038;20.000;2022-12-19T09:34:59;-5.28;59.09
48898;DHT22;34713;50.038;20.000;2022-12-19T09:37:25;-5.33;59.06
48898;DHT22;34713;50.038;20.000;2022-12-19T09:39:50;-5.31;59.09
48898;DHT22;34713;50.038;20.000;2022-12-19T09:47:46;-5.24;59.17
48898;DHT22;34713;50.038;20.000;2022-12-19T09:53:31;-5.14;59.16
48898;DHT22;34713;50.038;20.000;2022-12-19T09:55:57;-5.12;58.97
48898;DHT22;34713;50.038;20.000;2022-12-19T09:58:47;-5.17;58.98
48898;DHT22;34713;50.038;20.000;2022-12-19T10:01:21;-5.17;58.82
48898;DHT22;34713;50.038;20.000;2022-12-19T10:03:58;-5.19;58.85
48898;DHT22;34713;50.038;20.000;2022-12-19T10:06:23;-5.18;58.76
48898;DHT22;34713;50.038;20.000;2022-12-19T10:08:51;-5.18;58.87
48898;DHT22;34713;50.038;20.000;2022-12-19T10:14:46;-5.00;59.06
48898;DHT22;34713;50.038;20.000;2022-12-19T10:20:16;-4.81;59.12
48898;DHT22;34713;50.038;20.000;2022-12-19T10:25:59;-4.63;59.00
48898;DHT22;34713;50.038;20.000;2022-12-19T10:34:27;-4.38;58.98
48898;DHT22;34713;50.038;20.000;2022-12-19T10:36:56;-4.29;58.85
48898;DHT22;34713;50.038;20.000;2022-12-19T10:40:02;-4.19;58.84
48898;DHT22;34713;50.038;20.000;2022-12-19T10:45:21;-4.01;58.69
48898;DHT22;34713;50.038;20.000;2022-12-19T10:47:56;-3.94;58.59
48898;DHT22;34713;50.038;20.000;2022-12-19T10:50:25;-3.84;58.60
48898;DHT22;34713;50.038;20.000;2022-12-19T10:53:08;-3.76;58.53
48898;DHT22;34713;50.038;20.000;2022-12-19T10:55:50;-3.67;58.30
48898;DHT22;34713;50.038;20.000;2022-12-19T10:58:34;-3.61;58.40
48898;DHT22;34713;50.038;20.000;2022-12-19T11:01:20;-3.52;58.04
48898;DHT22;34713;50.038;20.000;2022-12-19T11:03:48;-3.49;58.21
48898;DHT22;34713;50.038;20.000;2022-12-19T11:09:30;-3.37;58.05
48898;DHT22;34713;50.038;20.000;2022-12-19T11:14:42;-3.40;57.92
48898;DHT22;34713;50.038;20.000;2022-12-19T11:17:05;-3.42;57.88
48898;DHT22;34713;50.038;20.000;2022-12-19T11:19:37;-3.43;57.89
48898;DHT22;34713;50.038;20.000;2022-12-19T11:22:06;-3.42;57.80
48898;DHT22;34713;50.038;20.000;2022-12-19T11:24:38;-3.46;57.54
48898;DHT22;34713;50.038;20.000;2022-12-19T11:29:58;-3.54;57.69
48898;DHT22;34713;50.038;20.000;2022-12-19T11:32:39;-3.60;57.78
48898;DHT22;34713;50.038;20.000;2022-12-19T11:35:25;-3.60;57.88
48898;DHT22;34713;50.038;20.000;2022-12-19T11:37:57;-3.61;58.04
48898;DHT22;34713;50.038;20.000;2022-12-19T11:40:45;-3.61;58.01
48898;DHT22;34713;50.038;20.000;2022-12-19T11:46:37;-3.61;57.69
48898;DHT22;34713;50.038;20.000;2022-12-19T11:49:25;-3.66;57.83
48898;DHT22;34713;50.038;20.000;2022-12-19T11:55:02;-3.70;58.28
48898;DHT22;34713;50.038;20.000;2022-12-19T11:57:25;-3.74;58.71
48898;DHT22;34713;50.038;20.000;2022-12-19T11:59:53;-3.71;58.65
48898;DHT22;34713;50.038;20.000;2022-12-19T12:03:10;-3.71;58.55
48898;DHT22;34713;50.038;20.000;2022-12-19T12:05:46;-3.69;58.61
48898;DHT22;34713;50.038;20.000;2022-12-19T12:26:07;-3.67;58.23
48898;DHT22;34713;50.038;20.000;2022-12-19T12:37:36;-3.56;58.66
48898;DHT22;34713;50.038;20.000;2022-12-19T12:45:43;-3.43;58.55
48898;DHT22;34713;50.038;20.000;2022-12-19T12:51:09;-3.46;58.60
48898;DHT22;34713;50.038;20.000;2022-12-19T12:53:40;-3.42;58.63
48898;DHT22;34713;50.038;20.000;2022-12-19T12:56:09;-3.35;58.69
48898;DHT22;34713;50.038;20.000;2022-12-19T13:01:38;-3.28;58.62
48898;DHT22;34713;50.038;20.000;2022-12-19T13:09:29;-3.26;58.83
48898;DHT22;34713;50.038;20.000;2022-12-19T13:12:20;-3.23;58.82
48898;DHT22;34713;50.038;20.000;2022-12-19T13:18:32;-3.22;58.76
48898;DHT22;34713;50.038;20.000;2022-12-19T13:20:55;-3.19;58.72
48898;DHT22;34713;50.038;20.000;2022-12-19T13:26:18;-3.18;58.61
48898;DHT22;34713;50.038;20.000;2022-12-19T13:28:44;-3.19;58.67
48898;DHT22;34713;50.038;20.000;2022-12-19T13:31:14;-3.16;58.66
48898;DHT22;34713;50.038;20.000;2022-12-19T13:39:46;-3.16;58.56
48898;DHT22;34713;50.038;20.000;2022-12-19T13:42:16;-3.16;58.45
48898;DHT22;34713;50.038;20.000;2022-12-19T13:45:23;-3.13;58.25
48898;DHT22;34713;50.038;20.000;2022-12-19T13:47:51;-3.16;58.26
48898;DHT22;34713;50.038;20.000;2022-12-19T13:50:37;-3.21;58.36
48898;DHT22;34713;50.038;20.000;2022-12-19T13:53:21;-3.22;58.38
48898;DHT22;34713;50.038;20.000;2022-12-19T13:55:48;-3.23;58.43
48898;DHT22;34713;50.038;20.000;2022-12-19T13:58:24;-3.23;58.46
48898;DHT22;34713;50.038;20.000;2022-12-19T14:00:53;-3.25;58.35
48898;DHT22;34713;50.038;20.000;2022-12-19T14:03:29;-3.25;58.48
48898;DHT22;34713;50.038;20.000;2022-12-19T14:05:51;-3.29;58.47
48898;DHT22;34713;50.038;20.000;2022-12-19T14:08:20;-3.29;58.52
48898;DHT22;34713;50.038;20.000;2022-12-19T14:10:48;-3.32;58.52
48898;DHT22;34713;50.038;20.000;2022-12-19T14:13:20;-3.36;58.56
48898;DHT22;34713;50.038;20.000;2022-12-19T14:16:05;-3.37;58.68
48898;DHT22;34713;50.038;20.000;2022-12-19T14:18:33;-3.36;58.72
48898;DHT22;34713;50.038;20.000;2022-12-19T14:21:21;-3.36;58.67
48898;DHT22;34713;50.038;20.000;2022-12-19T14:23:47;-3.42;58.69
48898;DHT22;34713;50.038;20.000;2022-12-19T14:26:28;-3.40;58.73
48898;DHT22;34713;50.038;20.000;2022-12-19T14:28:59;-3.40;58.66
48898;DHT22;34713;50.038;20.000;2022-12-19T14:31:26;-3.43;58.65
48898;DHT22;34713;50.038;20.000;2022-12-19T14:33:52;-3.47;58.73
48898;DHT22;34713;50.038;20.000;2022-12-19T14:36:22;-3.47;58.83
48898;DHT22;34713;50.038;20.000;2022-12-19T14:38:48;-3.52;58.83
48898;DHT22;34713;50.038;20.000;2022-12-19T14:44:19;-3.60;58.78
48898;DHT22;34713;50.038;20.000;2022-12-19T14:47:19;-3.63;58.68
48898;DHT22;34713;50.038;20.000;2022-12-19T14:49:40;-3.69;58.73
48898;DHT22;34713;50.038;20.000;2022-12-19T14:52:43;-3.70;58.75
48898;DHT22;34713;50.038;20.000;2022-12-19T14:55:25;-3.73;58.80
48898;DHT22;34713;50.038;20.000;2022-12-19T14:57:51;-3.76;58.88
48898;DHT22;34713;50.038;20.000;2022-12-19T15:00:29;-3.74;58.87
48898;DHT22;34713;50.038;20.000;2022-12-19T15:02:58;-3.73;58.92
48898;DHT22;34713;50.038;20.000;2022-12-19T15:05:25;-3.73;58.93
48898;DHT22;34713;50.038;20.000;2022-12-19T15:07:54;-3.74;58.91
48898;DHT22;34713;50.038;20.000;2022-12-19T15:10:26;-3.71;58.94
48898;DHT22;34713;50.038;20.000;2022-12-19T15:13:01;-3.71;58.93
48898;DHT22;34713;50.038;20.000;2022-12-19T15:16:02;-3.74;58.88
48898;DHT22;34713;50.038;20.000;2022-12-19T15:18:38;-3.77;58.94
48898;DHT22;34713;50.038;20.000;2022-12-19T15:21:13;-3.80;58.93
48898;DHT22;34713;50.038;20.000;2022-12-19T15:23:39;-3.77;58.93
48898;DHT22;34713;50.038;20.000;2022-12-19T15:26:25;-3.79;58.87
48898;DHT22;34713;50.038;20.000;2022-12-19T15:28:51;-3.84;58.93
48898;DHT22;34713;50.038;20.000;2022-12-19T15:31:39;-3.88;59.01
48898;DHT22;34713;50.038;20.000;2022-12-19T15:34:22;-3.88;58.98
48898;DHT22;34713;50.038;20.000;2022-12-19T15:36:50;-3.88;58.95
48898;DHT22;34713;50.038;20.000;2022-12-19T15:39:16;-3.94;58.91
48898;DHT22;34713;50.038;20.000;2022-12-19T15:41:49;-3.97;58.93
48898;DHT22;34713;50.038;20.000;2022-12-19T15:44:17;-4.00;58.93
48898;DHT22;34713;50.038;20.000;2022-12-19T15:46:45;-4.00;58.87
48898;DHT22;34713;50.038;20.000;2022-12-19T15:49:16;-4.01;58.87
48898;DHT22;34713;50.038;20.000;2022-12-19T15:51:42;-4.05;58.85
48898;DHT22;34713;50.038;20.000;2022-12-19T15:54:09;-4.07;58.90
48898;DHT22;34713;50.038;20.000;2022-12-19T15:56:39;-4.07;58.92
48898;DHT22;34713;50.038;20.000;2022-12-19T16:01:57;-4.11;58.91
48898;DHT22;34713;50.038;20.000;2022-12-19T16:04:24;-4.10;58.96
48898;DHT22;34713;50.038;20.000;2022-12-19T16:06:50;-4.10;59.00
48898;DHT22;34713;50.038;20.000;2022-12-19T16:09:24;-4.08;59.03
48898;DHT22;34713;50.038;20.000;2022-12-19T16:11:52;-4.07;59.01
48898;DHT22;34713;50.038;20.000;2022-12-19T16:14:20;-4.07;59.02
48898;DHT22;34713;50.038;20.000;2022-12-19T16:16:53;-4.08;59.00
48898;DHT22;34713;50.038;20.000;2022-12-19T16:19:30;-4.05;59.00
48898;DHT22;34713;50.038;20.000;2022-12-19T16:21:54;-4.02;58.97
48898;DHT22;34713;50.038;20.000;2022-12-19T16:24:21;-4.00;58.99
48898;DHT22;34713;50.038;20.000;2022-12-19T16:26:57;-4.01;58.95
48898;DHT22;34713;50.038;20.000;2022-12-19T16:29:27;-4.01;58.98
48898;DHT22;34713;50.038;20.000;2022-12-19T16:31:53;-3.98;59.06
48898;DHT22;34713;50.038;20.000;2022-12-19T16:34:23;-4.00;59.13
48898;DHT22;34713;50.038;20.000;2022-12-19T16:36:49;-3.97;59.21
48898;DHT22;34713;50.038;20.000;2022-12-19T16:39:15;-3.95;59.21
48898;DHT22;34713;50.038;20.000;2022-12-19T16:41:42;-3.91;59.17
48898;DHT22;34713;50.038;20.000;2022-12-19T16:44:19;-3.94;59.11
48898;DHT22;34713;50.038;20.000;2022-12-19T16:46:47;-3.95;59.08
48898;DHT22;34713;50.038;20.000;2022-12-19T16:49:17;-3.95;59.11
48898;DHT22;34713;50.038;20.000;2022-12-19T16:51:44;-3.95;59.13
48898;DHT22;34713;50.038;20.000;2022-12-19T16:54:12;-3.94;59.05
48898;DHT22;34713;50.038;20.000;2022-12-19T16:56:45;-3.94;59.01
48898;DHT22;34713;50.038;20.000;2022-12-19T17:01:47;-3.97;58.91
48898;DHT22;34713;50.038;20.000;2022-12-19T17:04:16;-3.98;58.90
48898;DHT22;34713;50.038;20.000;2022-12-19T17:06:42;-3.98;58.90
48898;DHT22;34713;50.038;20.000;2022-12-19T17:09:14;-3.98;58.91
48898;DHT22;34713;50.038;20.000;2022-12-19T17:11:54;-3.98;58.96
48898;DHT22;34713;50.038;20.000;2022-12-19T17:14:18;-3.95;58.97
48898;DHT22;34713;50.038;20.000;2022-12-19T17:16:45;-3.94;59.00
48898;DHT22;34713;50.038;20.000;2022-12-19T17:19:22;-3.94;58.95
48898;DHT22;34713;50.038;20.000;2022-12-19T17:21:49;-3.93;58.94
48898;DHT22;34713;50.038;20.000;2022-12-19T17:24:16;-3.91;58.90
48898;DHT22;34713;50.038;20.000;2022-12-19T17:26:43;-3.95;58.92
48898;DHT22;34713;50.038;20.000;2022-12-19T17:29:09;-3.94;58.92
48898;DHT22;34713;50.038;20.000;2022-12-19T17:31:37;-3.94;58.91
48898;DHT22;34713;50.038;20.000;2022-12-19T17:34:07;-3.94;58.92
48898;DHT22;34713;50.038;20.000;2022-12-19T17:36:34;-3.95;58.86
48898;DHT22;34713;50.038;20.000;2022-12-19T17:38:59;-3.97;58.89
48898;DHT22;34713;50.038;20.000;2022-12-19T17:41:26;-3.98;58.89
48898;DHT22;34713;50.038;20.000;2022-12-19T17:43:52;-3.97;58.86
48898;DHT22;34713;50.038;20.000;2022-12-19T17:46:21;-3.97;58.85
48898;DHT22;34713;50.038;20.000;2022-12-19T17:48:50;-3.97;58.85